sensor_id;sensor_type;location;lat;lon;timestamp;temperature;humidity
65072;DHT22;51663;52.310;17.016;2023-02-04T00:00:35;13.60;48.10
65072;DHT22;51663;52.310;17.016;2023-02-04T00:04:00;14.70;45.50
65072;DHT22;51663;52.310;17.016;2023-02-04T00:07:02;15.60;42.70
65072;DHT22;51663;52.310;17.016;2023-02-04T00:10:05;14.60;43.90
65072;DHT22;51663;52.310;17.016;2023-02-04T00:13:07;13.30;46.50
65072;DHT22;51663;52.310;17.016;2023-02-04T00:16:10;13.60;46.70
65072;DHT22;51663;52.310;17.016;2023-02-04T00:19:12;14.10;45.40
65072;DHT22;51663;52.310;17.016;2023-02-04T00:22:14;14.10;45.30
65072;DHT22;51663;52.310;17.016;2023-02-04T00:25:16;13.80;44.70
65072;DHT22;51663;52.310;17.016;2023-02-04T00:28:19;13.40;46.10
65072;DHT22;51663;52.310;17.016;2023-02-04T00:31:21;13.70;45.10
65072;DHT22;51663;52.310;17.016;2023-02-04T00:34:23;13.40;45.20
65072;DHT22;51663;52.310;17.016;2023-02-04T00:37:25;13.10;46.20
65072;DHT22;51663;52.310;17.016;2023-02-04T00:40:27;14.10;44.00
65072;DHT22;51663;52.310;17.016;2023-02-04T00:43:30;13.80;45.10
65072;DHT22;51663;52.310;17.016;2023-02-04T00:46:32;13.50;44.80
65072;DHT22;51663;52.310;17.016;2023-02-04T00:49:34;13.40;45.20
65072;DHT22;51663;52.310;17.016;2023-02-04T00:52:37;13.70;44.80
65072;DHT22;51663;52.310;17.016;2023-02-04T00:55:39;13.60;44.00
65072;DHT22;51663;52.310;17.016;2023-02-04T00:58:41;12.80;45.80
65072;DHT22;51663;52.310;17.016;2023-02-04T01:01:43;13.60;44.80
65072;DHT22;51663;52.310;17.016;2023-02-04T01:04:46;13.70;43.90
65072;DHT22;51663;52.310;17.016;2023-02-04T01:07:48;15.10;41.70
65072;DHT22;51663;52.310;17.016;2023-02-04T01:10:50;14.10;42.50
65072;DHT22;51663;52.310;17.016;2023-02-04T01:13:53;12.50;45.60
65072;DHT22;51663;52.310;17.016;2023-02-04T01:16:55;12.90;45.10
65072;DHT22;51663;52.310;17.016;2023-02-04T01:19:57;13.20;43.10
65072;DHT22;51663;52.310;17.016;2023-02-04T01:22:59;13.10;43.80
65072;DHT22;51663;52.310;17.016;2023-02-04T01:26:02;14.10;42.20
65072;DHT22;51663;52.310;17.016;2023-02-04T01:29:04;14.90;38.70
65072;DHT22;51663;52.310;17.016;2023-02-04T01:32:07;14.20;39.50
65072;DHT22;51663;52.310;17.016;2023-02-04T01:35:09;14.20;40.10
65072;DHT22;51663;52.310;17.016;2023-02-04T01:38:11;14.10;39.50
65072;DHT22;51663;52.310;17.016;2023-02-04T01:41:15;14.40;39.00
65072;DHT22;51663;52.310;17.016;2023-02-04T01:44:17;14.10;39.40
65072;DHT22;51663;52.310;17.016;2023-02-04T01:47:20;13.40;40.90
65072;DHT22;51663;52.310;17.016;2023-02-04T01:50:22;13.90;40.60
65072;DHT22;51663;52.310;17.016;2023-02-04T01:53:25;14.80;38.80
65072;DHT22;51663;52.310;17.016;2023-02-04T01:56:29;14.10;38.40
65072;DHT22;51663;52.310;17.016;2023-02-04T01:59:32;13.60;40.10
65072;DHT22;51663;52.310;17.016;2023-02-04T02:05:52;14.40;38.50
65072;DHT22;51663;52.310;17.016;2023-02-04T02:08:56;14.70;37.50
65072;DHT22;51663;52.310;17.016;2023-02-04T02:12:00;15.10;36.60
65072;DHT22;51663;52.310;17.016;2023-02-04T02:15:04;14.50;37.90
65072;DHT22;51663;52.310;17.016;2023-02-04T02:18:07;14.60;38.10
65072;DHT22;51663;52.310;17.016;2023-02-04T02:21:12;14.40;37.40
65072;DHT22;51663;52.310;17.016;2023-02-04T02:24:32;14.80;37.40
65072;DHT22;51663;52.310;17.016;2023-02-04T02:27:38;14.70;37.70
65072;DHT22;51663;52.310;17.016;2023-02-04T02:30:41;14.60;38.20
65072;DHT22;51663;52.310;17.016;2023-02-04T02:33:46;14.40;38.00
65072;DHT22;51663;52.310;17.016;2023-02-04T02:36:49;14.10;39.00
65072;DHT22;51663;52.310;17.016;2023-02-04T02:39:51;14.10;39.70
65072;DHT22;51663;52.310;17.016;2023-02-04T02:42:54;13.50;40.80
65072;DHT22;51663;52.310;17.016;2023-02-04T02:45:58;14.00;39.60
65072;DHT22;51663;52.310;17.016;2023-02-04T02:49:02;14.40;39.60
65072;DHT22;51663;52.310;17.016;2023-02-04T02:52:04;14.50;38.40
65072;DHT22;51663;52.310;17.016;2023-02-04T02:55:13;14.40;38.60
65072;DHT22;51663;52.310;17.016;2023-02-04T03:01:26;13.60;40.40
65072;DHT22;51663;52.310;17.016;2023-02-04T03:04:31;13.30;40.90
65072;DHT22;51663;52.310;17.016;2023-02-04T03:07:35;13.30;41.50
65072;DHT22;51663;52.310;17.016;2023-02-04T03:10:37;13.90;40.10
65072;DHT22;51663;52.310;17.016;2023-02-04T03:13:39;14.30;39.50
65072;DHT22;51663;52.310;17.016;2023-02-04T03:16:42;14.20;38.50
65072;DHT22;51663;52.310;17.016;2023-02-04T03:19:45;13.70;39.40
65072;DHT22;51663;52.310;17.016;2023-02-04T03:22:47;14.40;39.10
65072;DHT22;51663;52.310;17.016;2023-02-04T03:25:51;15.60;36.60
65072;DHT22;51663;52.310;17.016;2023-02-04T03:28:53;14.70;37.30
65072;DHT22;51663;52.310;17.016;2023-02-04T03:31:56;14.40;37.70
65072;DHT22;51663;52.310;17.016;2023-02-04T03:35:01;14.70;37.90
65072;DHT22;51663;52.310;17.016;2023-02-04T03:38:03;14.80;37.10
65072;DHT22;51663;52.310;17.016;2023-02-04T03:41:06;14.20;37.70
65072;DHT22;51663;52.310;17.016;2023-02-04T03:44:08;14.20;37.80
65072;DHT22;51663;52.310;17.016;2023-02-04T03:47:10;14.60;36.70
65072;DHT22;51663;52.310;17.016;2023-02-04T03:50:13;14.40;37.20
65072;DHT22;51663;52.310;17.016;2023-02-04T03:53:15;15.40;35.30
65072;DHT22;51663;52.310;17.016;2023-02-04T03:56:17;15.60;34.80
65072;DHT22;51663;52.310;17.016;2023-02-04T03:59:19;15.30;35.30
65072;DHT22;51663;52.310;17.016;2023-02-04T04:02:22;16.30;33.80
65072;DHT22;51663;52.310;17.016;2023-02-04T04:05:24;15.90;34.50
65072;DHT22;51663;52.310;17.016;2023-02-04T04:08:27;15.60;34.90
65072;DHT22;51663;52.310;17.016;2023-02-04T04:11:30;16.60;33.50
65072;DHT22;51663;52.310;17.016;2023-02-04T04:14:32;17.80;31.50
65072;DHT22;51663;52.310;17.016;2023-02-04T04:17:34;16.90;32.00
65072;DHT22;51663;52.310;17.016;2023-02-04T04:20:37;18.50;30.30
65072;DHT22;51663;52.310;17.016;2023-02-04T04:23:39;18.00;30.00
65072;DHT22;51663;52.310;17.016;2023-02-04T04:26:41;18.30;30.40
65072;DHT22;51663;52.310;17.016;2023-02-04T04:29:43;17.50;31.20
65072;DHT22;51663;52.310;17.016;2023-02-04T04:32:45;17.80;31.50
65072;DHT22;51663;52.310;17.016;2023-02-04T04:35:47;18.20;30.50
65072;DHT22;51663;52.310;17.016;2023-02-04T04:38:50;17.50;31.40
65072;DHT22;51663;52.310;17.016;2023-02-04T04:41:52;18.00;31.40
65072;DHT22;51663;52.310;17.016;2023-02-04T04:44:54;18.20;31.10
65072;DHT22;51663;52.310;17.016;2023-02-04T04:47:56;18.30;30.80
65072;DHT22;51663;52.310;17.016;2023-02-04T04:50:58;18.50;30.20
65072;DHT22;51663;52.310;17.016;2023-02-04T04:54:00;18.50;30.50
65072;DHT22;51663;52.310;17.016;2023-02-04T04:57:03;18.30;31.50
65072;DHT22;51663;52.310;17.016;2023-02-04T05:00:06;19.30;29.70
65072;DHT22;51663;52.310;17.016;2023-02-04T05:03:08;19.60;29.40
65072;DHT22;51663;52.310;17.016;2023-02-04T05:06:11;19.00;29.20
65072;DHT22;51663;52.310;17.016;2023-02-04T05:09:14;18.80;30.00
65072;DHT22;51663;52.310;17.016;2023-02-04T05:12:18;19.10;29.80
65072;DHT22;51663;52.310;17.016;2023-02-04T05:15:20;19.60;29.30
65072;DHT22;51663;52.310;17.016;2023-02-04T05:18:22;20.80;28.00
65072;DHT22;51663;52.310;17.016;2023-02-04T05:21:25;20.40;28.20
65072;DHT22;51663;52.310;17.016;2023-02-04T05:24:27;21.00;27.50
65072;DHT22;51663;52.310;17.016;2023-02-04T05:27:29;21.60;26.70
65072;DHT22;51663;52.310;17.016;2023-02-04T05:30:31;21.90;26.20
65072;DHT22;51663;52.310;17.016;2023-02-04T05:33:34;23.10;25.10
65072;DHT22;51663;52.310;17.016;2023-02-04T05:36:36;22.10;25.50
65072;DHT22;51663;52.310;17.016;2023-02-04T05:39:38;22.40;25.50
65072;DHT22;51663;52.310;17.016;2023-02-04T05:42:40;23.20;25.00
65072;DHT22;51663;52.310;17.016;2023-02-04T05:45:43;24.60;23.80
65072;DHT22;51663;52.310;17.016;2023-02-04T05:48:45;24.90;23.20
65072;DHT22;51663;52.310;17.016;2023-02-04T05:51:47;25.10;22.90
65072;DHT22;51663;52.310;17.016;2023-02-04T05:54:49;25.20;22.70
65072;DHT22;51663;52.310;17.016;2023-02-04T05:57:51;25.20;22.70
65072;DHT22;51663;52.310;17.016;2023-02-04T06:00:53;24.80;23.00
65072;DHT22;51663;52.310;17.016;2023-02-04T06:03:56;24.60;23.10
65072;DHT22;51663;52.310;17.016;2023-02-04T06:06:58;24.00;23.80
65072;DHT22;51663;52.310;17.016;2023-02-04T06:10:00;24.10;23.80
65072;DHT22;51663;52.310;17.016;2023-02-04T06:13:02;23.90;24.00
65072;DHT22;51663;52.310;17.016;2023-02-04T06:16:05;23.90;24.00
65072;DHT22;51663;52.310;17.016;2023-02-04T06:19:07;23.40;24.50
65072;DHT22;51663;52.310;17.016;2023-02-04T06:22:10;23.50;24.10
65072;DHT22;51663;52.310;17.016;2023-02-04T06:25:12;23.80;24.10
65072;DHT22;51663;52.310;17.016;2023-02-04T06:28:15;24.10;23.70
65072;DHT22;51663;52.310;17.016;2023-02-04T06:31:17;24.10;24.00
65072;DHT22;51663;52.310;17.016;2023-02-04T06:34:20;24.20;23.70
65072;DHT22;51663;52.310;17.016;2023-02-04T06:37:22;23.90;23.70
65072;DHT22;51663;52.310;17.016;2023-02-04T06:40:25;23.70;23.90
65072;DHT22;51663;52.310;17.016;2023-02-04T06:43:27;24.10;23.50
65072;DHT22;51663;52.310;17.016;2023-02-04T06:46:29;24.10;23.30
65072;DHT22;51663;52.310;17.016;2023-02-04T06:49:32;23.40;23.70
65072;DHT22;51663;52.310;17.016;2023-02-04T06:52:34;22.90;24.60
65072;DHT22;51663;52.310;17.016;2023-02-04T06:55:36;22.90;24.60
65072;DHT22;51663;52.310;17.016;2023-02-04T06:58:38;23.00;24.60
65072;DHT22;51663;52.310;17.016;2023-02-04T07:01:40;23.80;24.00
65072;DHT22;51663;52.310;17.016;2023-02-04T07:04:43;24.00;23.70
65072;DHT22;51663;52.310;17.016;2023-02-04T07:07:47;23.70;24.00
65072;DHT22;51663;52.310;17.016;2023-02-04T07:10:50;23.60;24.20
65072;DHT22;51663;52.310;17.016;2023-02-04T07:13:52;22.70;24.60
65072;DHT22;51663;52.310;17.016;2023-02-04T07:16:54;21.70;25.40
65072;DHT22;51663;52.310;17.016;2023-02-04T07:19:58;21.10;26.60
65072;DHT22;51663;52.310;17.016;2023-02-04T07:23:01;20.80;27.10
65072;DHT22;51663;52.310;17.016;2023-02-04T07:26:03;19.70;28.20
65072;DHT22;51663;52.310;17.016;2023-02-04T07:29:05;19.40;29.10
65072;DHT22;51663;52.310;17.016;2023-02-04T07:32:15;19.50;28.60
65072;DHT22;51663;52.310;17.016;2023-02-04T07:35:17;20.20;28.60
65072;DHT22;51663;52.310;17.016;2023-02-04T07:38:19;20.10;27.90
65072;DHT22;51663;52.310;17.016;2023-02-04T07:41:21;19.60;28.90
65072;DHT22;51663;52.310;17.016;2023-02-04T07:44:24;19.50;28.60
65072;DHT22;51663;52.310;17.016;2023-02-04T07:47:26;20.00;28.60
65072;DHT22;51663;52.310;17.016;2023-02-04T07:50:28;20.60;27.70
65072;DHT22;51663;52.310;17.016;2023-02-04T07:53:30;19.80;28.40
65072;DHT22;51663;52.310;17.016;2023-02-04T07:56:33;19.30;29.10
65072;DHT22;51663;52.310;17.016;2023-02-04T07:59:35;19.50;29.40
65072;DHT22;51663;52.310;17.016;2023-02-04T08:02:37;19.10;29.80
65072;DHT22;51663;52.310;17.016;2023-02-04T08:05:39;19.10;29.80
65072;DHT22;51663;52.310;17.016;2023-02-04T08:08:41;19.20;29.70
65072;DHT22;51663;52.310;17.016;2023-02-04T08:11:44;19.80;28.90
65072;DHT22;51663;52.310;17.016;2023-02-04T08:14:46;19.20;29.60
65072;DHT22;51663;52.310;17.016;2023-02-04T08:17:48;18.60;30.40
65072;DHT22;51663;52.310;17.016;2023-02-04T08:20:50;19.30;29.60
65072;DHT22;51663;52.310;17.016;2023-02-04T08:23:53;20.40;28.50
65072;DHT22;51663;52.310;17.016;2023-02-04T08:26:55;20.50;28.10
65072;DHT22;51663;52.310;17.016;2023-02-04T08:29:57;20.40;28.70
65072;DHT22;51663;52.310;17.016;2023-02-04T08:33:00;20.90;27.70
65072;DHT22;51663;52.310;17.016;2023-02-04T08:36:02;21.20;27.20
65072;DHT22;51663;52.310;17.016;2023-02-04T08:39:04;20.60;27.80
65072;DHT22;51663;52.310;17.016;2023-02-04T08:42:06;21.30;27.50
65072;DHT22;51663;52.310;17.016;2023-02-04T08:45:09;21.60;26.60
65072;DHT22;51663;52.310;17.016;2023-02-04T08:48:11;20.60;27.70
65072;DHT22;51663;52.310;17.016;2023-02-04T08:51:13;21.10;27.50
65072;DHT22;51663;52.310;17.016;2023-02-04T08:54:17;21.10;26.80
65072;DHT22;51663;52.310;17.016;2023-02-04T08:57:19;20.70;27.60
65072;DHT22;51663;52.310;17.016;2023-02-04T09:00:21;20.20;27.60
65072;DHT22;51663;52.310;17.016;2023-02-04T09:03:23;20.50;27.60
65072;DHT22;51663;52.310;17.016;2023-02-04T09:06:25;19.70;28.50
65072;DHT22;51663;52.310;17.016;2023-02-04T09:09:27;20.00;28.20
65072;DHT22;51663;52.310;17.016;2023-02-04T09:12:30;20.10;28.10
65072;DHT22;51663;52.310;17.016;2023-02-04T09:15:32;19.60;28.40
65072;DHT22;51663;52.310;17.016;2023-02-04T09:18:34;20.40;27.80
65072;DHT22;51663;52.310;17.016;2023-02-04T09:21:36;20.10;26.80
65072;DHT22;51663;52.310;17.016;2023-02-04T09:24:38;18.90;29.00
65072;DHT22;51663;52.310;17.016;2023-02-04T09:27:41;19.60;28.20
65072;DHT22;51663;52.310;17.016;2023-02-04T09:30:45;19.20;27.60
65072;DHT22;51663;52.310;17.016;2023-02-04T09:33:48;18.80;28.20
65072;DHT22;51663;52.310;17.016;2023-02-04T09:36:50;18.20;28.50
65072;DHT22;51663;52.310;17.016;2023-02-04T09:39:52;18.80;27.90
65072;DHT22;51663;52.310;17.016;2023-02-04T09:42:55;18.40;28.00
65072;DHT22;51663;52.310;17.016;2023-02-04T09:45:58;17.90;29.00
65072;DHT22;51663;52.310;17.016;2023-02-04T09:49:00;18.20;28.80
65072;DHT22;51663;52.310;17.016;2023-02-04T09:52:10;18.30;28.10
65072;DHT22;51663;52.310;17.016;2023-02-04T09:55:15;17.40;29.00
65072;DHT22;51663;52.310;17.016;2023-02-04T09:58:21;16.90;30.20
65072;DHT22;51663;52.310;17.016;2023-02-04T10:01:26;16.60;29.70
65072;DHT22;51663;52.310;17.016;2023-02-04T10:04:29;16.40;30.50
65072;DHT22;51663;52.310;17.016;2023-02-04T10:07:32;17.10;30.00
65072;DHT22;51663;52.310;17.016;2023-02-04T10:10:34;17.20;29.60
65072;DHT22;51663;52.310;17.016;2023-02-04T10:13:46;18.20;28.30
65072;DHT22;51663;52.310;17.016;2023-02-04T10:16:57;17.80;28.80
65072;DHT22;51663;52.310;17.016;2023-02-04T10:20:21;17.70;28.60
65072;DHT22;51663;52.310;17.016;2023-02-04T10:23:23;18.40;28.20
65072;DHT22;51663;52.310;17.016;2023-02-04T10:26:28;18.90;28.20
65072;DHT22;51663;52.310;17.016;2023-02-04T10:29:30;19.10;26.20
65072;DHT22;51663;52.310;17.016;2023-02-04T10:32:35;18.00;28.50
65072;DHT22;51663;52.310;17.016;2023-02-04T10:35:45;17.80;28.10
65072;DHT22;51663;52.310;17.016;2023-02-04T10:38:59;17.00;29.90
65072;DHT22;51663;52.310;17.016;2023-02-04T10:42:01;16.20;31.80
65072;DHT22;51663;52.310;17.016;2023-02-04T10:45:03;16.30;31.60
65072;DHT22;51663;52.310;17.016;2023-02-04T10:48:20;16.00;30.60
65072;DHT22;51663;52.310;17.016;2023-02-04T10:51:23;15.60;31.60
65072;DHT22;51663;52.310;17.016;2023-02-04T10:54:34;15.90;32.40
65072;DHT22;51663;52.310;17.016;2023-02-04T10:57:40;16.40;32.10
65072;DHT22;51663;52.310;17.016;2023-02-04T11:00:42;17.60;30.40
65072;DHT22;51663;52.310;17.016;2023-02-04T11:03:45;18.30;28.90
65072;DHT22;51663;52.310;17.016;2023-02-04T11:06:50;19.00;27.90
65072;DHT22;51663;52.310;17.016;2023-02-04T11:09:53;18.40;27.50
65072;DHT22;51663;52.310;17.016;2023-02-04T11:19:13;18.50;26.90
65072;DHT22;51663;52.310;17.016;2023-02-04T11:22:42;19.10;26.90
65072;DHT22;51663;52.310;17.016;2023-02-04T11:25:45;18.90;26.50
65072;DHT22;51663;52.310;17.016;2023-02-04T11:35:26;19.10;27.50
65072;DHT22;51663;52.310;17.016;2023-02-04T11:38:32;19.70;26.30
65072;DHT22;51663;52.310;17.016;2023-02-04T11:41:35;19.80;26.30
65072;DHT22;51663;52.310;17.016;2023-02-04T11:44:37;20.30;25.70
65072;DHT22;51663;52.310;17.016;2023-02-04T11:47:40;20.90;25.50
65072;DHT22;51663;52.310;17.016;2023-02-04T11:50:57;20.90;24.80
65072;DHT22;51663;52.310;17.016;2023-02-04T11:53:59;20.50;24.80
65072;DHT22;51663;52.310;17.016;2023-02-04T11:57:02;21.00;25.40
65072;DHT22;51663;52.310;17.016;2023-02-04T12:00:05;21.10;25.00
65072;DHT22;51663;52.310;17.016;2023-02-04T12:06:31;20.80;24.40
65072;DHT22;51663;52.310;17.016;2023-02-04T12:09:33;22.00;24.50
65072;DHT22;51663;52.310;17.016;2023-02-04T12:12:41;22.90;22.90
65072;DHT22;51663;52.310;17.016;2023-02-04T12:15:59;22.40;23.40
65072;DHT22;51663;52.310;17.016;2023-02-04T12:19:02;21.80;23.60
65072;DHT22;51663;52.310;17.016;2023-02-04T12:22:04;19.70;25.50
65072;DHT22;51663;52.310;17.016;2023-02-04T12:25:06;19.60;26.80
65072;DHT22;51663;52.310;17.016;2023-02-04T12:28:08;19.70;26.50
65072;DHT22;51663;52.310;17.016;2023-02-04T12:31:11;19.90;26.30
65072;DHT22;51663;52.310;17.016;2023-02-04T12:34:13;21.00;25.80
65072;DHT22;51663;52.310;17.016;2023-02-04T12:37:17;21.00;25.30
65072;DHT22;51663;52.310;17.016;2023-02-04T12:40:20;21.10;24.80
65072;DHT22;51663;52.310;17.016;2023-02-04T12:43:23;21.10;24.70
65072;DHT22;51663;52.310;17.016;2023-02-04T12:46:29;20.50;25.90
65072;DHT22;51663;52.310;17.016;2023-02-04T12:49:31;20.00;28.00
65072;DHT22;51663;52.310;17.016;2023-02-04T12:52:33;21.00;27.10
65072;DHT22;51663;52.310;17.016;2023-02-04T12:55:36;20.60;27.60
65072;DHT22;51663;52.310;17.016;2023-02-04T12:58:38;21.60;26.80
65072;DHT22;51663;52.310;17.016;2023-02-04T13:01:41;22.00;25.00
65072;DHT22;51663;52.310;17.016;2023-02-04T13:04:43;20.30;25.70
65072;DHT22;51663;52.310;17.016;2023-02-04T13:07:45;19.10;27.60
65072;DHT22;51663;52.310;17.016;2023-02-04T13:10:47;18.70;27.80
65072;DHT22;51663;52.310;17.016;2023-02-04T13:13:53;18.80;28.30
65072;DHT22;51663;52.310;17.016;2023-02-04T13:16:55;19.20;27.60
65072;DHT22;51663;52.310;17.016;2023-02-04T13:19:57;18.70;28.10
65072;DHT22;51663;52.310;17.016;2023-02-04T13:22:59;19.20;27.70
65072;DHT22;51663;52.310;17.016;2023-02-04T13:26:01;18.80;27.20
65072;DHT22;51663;52.310;17.016;2023-02-04T13:29:03;18.80;27.10
65072;DHT22;51663;52.310;17.016;2023-02-04T13:32:06;17.60;27.70
65072;DHT22;51663;52.310;17.016;2023-02-04T13:35:08;17.10;28.80
65072;DHT22;51663;52.310;17.016;2023-02-04T13:38:10;16.80;28.50
65072;DHT22;51663;52.310;17.016;2023-02-04T13:41:12;17.70;29.10
65072;DHT22;51663;52.310;17.016;2023-02-04T13:44:15;18.20;28.10
65072;DHT22;51663;52.310;17.016;2023-02-04T13:47:17;17.90;27.70
65072;DHT22;51663;52.310;17.016;2023-02-04T13:50:19;17.40;28.70
65072;DHT22;51663;52.310;17.016;2023-02-04T13:53:21;17.00;29.00
65072;DHT22;51663;52.310;17.016;2023-02-04T13:56:24;17.50;28.80
65072;DHT22;51663;52.310;17.016;2023-02-04T13:59:26;18.90;27.60
65072;DHT22;51663;52.310;17.016;2023-02-04T14:02:28;18.60;27.70
65072;DHT22;51663;52.310;17.016;2023-02-04T14:05:30;18.70;27.90
65072;DHT22;51663;52.310;17.016;2023-02-04T14:08:32;19.50;27.50
65072;DHT22;51663;52.310;17.016;2023-02-04T14:11:34;19.30;27.60
65072;DHT22;51663;52.310;17.016;2023-02-04T14:14:37;18.30;27.70
65072;DHT22;51663;52.310;17.016;2023-02-04T14:17:39;18.60;28.30
65072;DHT22;51663;52.310;17.016;2023-02-04T14:20:42;18.10;28.20
65072;DHT22;51663;52.310;17.016;2023-02-04T14:23:44;18.50;28.50
65072;DHT22;51663;52.310;17.016;2023-02-04T14:26:46;18.30;28.70
65072;DHT22;51663;52.310;17.016;2023-02-04T14:29:49;18.70;28.40
65072;DHT22;51663;52.310;17.016;2023-02-04T14:32:51;19.40;28.70
65072;DHT22;51663;52.310;17.016;2023-02-04T14:35:53;19.50;28.30
65072;DHT22;51663;52.310;17.016;2023-02-04T14:38:55;19.00;29.00
65072;DHT22;51663;52.310;17.016;2023-02-04T14:41:57;18.30;31.20
65072;DHT22;51663;52.310;17.016;2023-02-04T14:45:00;19.40;29.70
65072;DHT22;51663;52.310;17.016;2023-02-04T14:48:09;20.30;29.00
65072;DHT22;51663;52.310;17.016;2023-02-04T14:51:14;21.50;28.30
65072;DHT22;51663;52.310;17.016;2023-02-04T14:54:17;22.40;26.80
65072;DHT22;51663;52.310;17.016;2023-02-04T14:57:22;22.10;26.80
65072;DHT22;51663;52.310;17.016;2023-02-04T15:00:24;22.40;26.60
65072;DHT22;51663;52.310;17.016;2023-02-04T15:03:26;22.30;26.50
65072;DHT22;51663;52.310;17.016;2023-02-04T15:06:28;22.30;25.90
65072;DHT22;51663;52.310;17.016;2023-02-04T15:09:31;22.30;26.50
65072;DHT22;51663;52.310;17.016;2023-02-04T15:12:37;22.80;25.80
65072;DHT22;51663;52.310;17.016;2023-02-04T15:15:42;23.60;25.00
65072;DHT22;51663;52.310;17.016;2023-02-04T15:18:44;22.70;25.10
65072;DHT22;51663;52.310;17.016;2023-02-04T15:21:49;22.80;24.50
65072;DHT22;51663;52.310;17.016;2023-02-04T15:24:55;23.20;24.20
65072;DHT22;51663;52.310;17.016;2023-02-04T15:27:57;23.30;24.60
65072;DHT22;51663;52.310;17.016;2023-02-04T15:30:59;22.90;23.60
65072;DHT22;51663;52.310;17.016;2023-02-04T15:34:03;23.10;24.10
65072;DHT22;51663;52.310;17.016;2023-02-04T15:37:09;22.70;23.80
65072;DHT22;51663;52.310;17.016;2023-02-04T15:40:12;22.60;24.20
65072;DHT22;51663;52.310;17.016;2023-02-04T15:43:14;22.70;23.90
65072;DHT22;51663;52.310;17.016;2023-02-04T15:46:16;22.60;24.00
65072;DHT22;51663;52.310;17.016;2023-02-04T15:49:18;21.70;24.80
65072;DHT22;51663;52.310;17.016;2023-02-04T15:52:22;21.90;24.90
65072;DHT22;51663;52.310;17.016;2023-02-04T15:55:26;20.40;26.80
65072;DHT22;51663;52.310;17.016;2023-02-04T15:58:29;18.40;31.20
65072;DHT22;51663;52.310;17.016;2023-02-04T16:01:31;19.40;31.60
65072;DHT22;51663;52.310;17.016;2023-02-04T16:04:35;21.20;29.20
65072;DHT22;51663;52.310;17.016;2023-02-04T16:07:37;21.70;27.90
65072;DHT22;51663;52.310;17.016;2023-02-04T16:10:39;21.90;27.10
65072;DHT22;51663;52.310;17.016;2023-02-04T16:13:41;22.70;26.10
65072;DHT22;51663;52.310;17.016;2023-02-04T16:16:44;23.00;25.70
65072;DHT22;51663;52.310;17.016;2023-02-04T16:19:46;22.80;25.20
65072;DHT22;51663;52.310;17.016;2023-02-04T16:22:48;23.10;25.00
65072;DHT22;51663;52.310;17.016;2023-02-04T16:25:51;23.40;24.00
65072;DHT22;51663;52.310;17.016;2023-02-04T16:28:53;23.00;23.90
65072;DHT22;51663;52.310;17.016;2023-02-04T16:31:56;22.10;24.80
65072;DHT22;51663;52.310;17.016;2023-02-04T16:34:59;22.30;24.50
65072;DHT22;51663;52.310;17.016;2023-02-04T16:38:03;22.00;24.30
65072;DHT22;51663;52.310;17.016;2023-02-04T16:41:06;21.90;24.60
65072;DHT22;51663;52.310;17.016;2023-02-04T16:44:08;22.10;23.70
65072;DHT22;51663;52.310;17.016;2023-02-04T16:47:11;21.90;23.80
65072;DHT22;51663;52.310;17.016;2023-02-04T16:50:13;20.80;25.10
65072;DHT22;51663;52.310;17.016;2023-02-04T16:53:15;20.40;25.50
65072;DHT22;51663;52.310;17.016;2023-02-04T16:56:17;20.60;25.70
65072;DHT22;51663;52.310;17.016;2023-02-04T16:59:20;19.70;26.20
65072;DHT22;51663;52.310;17.016;2023-02-04T17:02:22;19.90;26.10
65072;DHT22;51663;52.310;17.016;2023-02-04T17:05:25;19.90;25.90
65072;DHT22;51663;52.310;17.016;2023-02-04T17:08:27;20.20;25.90
65072;DHT22;51663;52.310;17.016;2023-02-04T17:11:30;20.50;25.20
65072;DHT22;51663;52.310;17.016;2023-02-04T17:14:32;21.10;24.80
65072;DHT22;51663;52.310;17.016;2023-02-04T17:17:35;20.00;25.50
65072;DHT22;51663;52.310;17.016;2023-02-04T17:20:37;19.70;25.80
65072;DHT22;51663;52.310;17.016;2023-02-04T17:23:39;19.80;26.00
65072;DHT22;51663;52.310;17.016;2023-02-04T17:26:41;19.30;26.60
65072;DHT22;51663;52.310;17.016;2023-02-04T17:29:44;19.70;26.00
65072;DHT22;51663;52.310;17.016;2023-02-04T17:32:46;20.10;26.00
65072;DHT22;51663;52.310;17.016;2023-02-04T17:35:48;20.80;25.00
65072;DHT22;51663;52.310;17.016;2023-02-04T17:38:51;20.10;25.50
65072;DHT22;51663;52.310;17.016;2023-02-04T17:41:54;20.50;25.50
65072;DHT22;51663;52.310;17.016;2023-02-04T17:44:56;19.60;26.40
65072;DHT22;51663;52.310;17.016;2023-02-04T17:47:58;21.40;25.20
65072;DHT22;51663;52.310;17.016;2023-02-04T17:51:00;21.30;24.60
65072;DHT22;51663;52.310;17.016;2023-02-04T17:54:03;21.20;24.90
65072;DHT22;51663;52.310;17.016;2023-02-04T17:57:19;21.70;24.50
65072;DHT22;51663;52.310;17.016;2023-02-04T18:00:23;21.10;24.80
65072;DHT22;51663;52.310;17.016;2023-02-04T18:03:27;21.20;25.00
65072;DHT22;51663;52.310;17.016;2023-02-04T18:06:29;21.50;24.40
65072;DHT22;51663;52.310;17.016;2023-02-04T18:09:32;21.80;24.40
65072;DHT22;51663;52.310;17.016;2023-02-04T18:12:34;21.70;24.40
65072;DHT22;51663;52.310;17.016;2023-02-04T18:15:37;20.00;25.50
65072;DHT22;51663;52.310;17.016;2023-02-04T18:18:40;19.30;26.60
65072;DHT22;51663;52.310;17.016;2023-02-04T18:21:42;19.30;27.10
65072;DHT22;51663;52.310;17.016;2023-02-04T18:24:45;19.30;26.70
65072;DHT22;51663;52.310;17.016;2023-02-04T18:27:50;18.90;27.40
65072;DHT22;51663;52.310;17.016;2023-02-04T18:30:56;19.30;27.50
65072;DHT22;51663;52.310;17.016;2023-02-04T18:34:01;20.60;26.10
65072;DHT22;51663;52.310;17.016;2023-02-04T18:40:30;20.40;25.90
65072;DHT22;51663;52.310;17.016;2023-02-04T18:43:36;21.00;25.50
65072;DHT22;51663;52.310;17.016;2023-02-04T18:46:43;21.00;25.30
65072;DHT22;51663;52.310;17.016;2023-02-04T18:49:47;20.80;25.50
65072;DHT22;51663;52.310;17.016;2023-02-04T18:52:49;20.30;26.20
65072;DHT22;51663;52.310;17.016;2023-02-04T18:55:56;21.20;25.50
65072;DHT22;51663;52.310;17.016;2023-02-04T18:58:58;22.00;24.70
65072;DHT22;51663;52.310;17.016;2023-02-04T19:02:01;22.50;24.50
65072;DHT22;51663;52.310;17.016;2023-02-04T19:05:35;22.00;24.50
65072;DHT22;51663;52.310;17.016;2023-02-04T19:08:43;22.70;24.00
65072;DHT22;51663;52.310;17.016;2023-02-04T19:11:47;22.60;23.90
65072;DHT22;51663;52.310;17.016;2023-02-04T19:14:52;22.80;23.70
65072;DHT22;51663;52.310;17.016;2023-02-04T19:17:56;23.40;23.20
65072;DHT22;51663;52.310;17.016;2023-02-04T19:21:22;22.80;23.40
65072;DHT22;51663;52.310;17.016;2023-02-04T19:24:27;22.70;23.60